createdAt,value
2023-02-17T00:00:56.667Z,68.90
2023-02-17T00:03:23.781Z,69.06
2023-02-17T00:05:51.128Z,69.12
2023-02-17T00:08:17.668Z,69.23
2023-02-17T00:10:44.189Z,69.39
2023-02-17T00:13:10.525Z,69.49
2023-02-17T00:15:40.402Z,69.32
2023-02-17T00:18:06.777Z,69.47
2023-02-17T00:20:33.074Z,69.48
2023-02-17T00:22:59.432Z,69.55
2023-02-17T00:25:25.850Z,69.61
2023-02-17T00:27:52.176Z,69.45
2023-02-17T00:30:18.791Z,69.50
2023-02-17T00:32:45.352Z,69.63
2023-02-17T00:35:11.666Z,69.74
2023-02-17T00:37:38.436Z,69.75
2023-02-17T00:40:05.552Z,69.72
2023-02-17T00:42:31.897Z,69.75
2023-02-17T00:44:58.239Z,69.84
2023-02-17T00:47:24.644Z,69.77
2023-02-17T00:49:50.981Z,69.73
2023-02-17T00:52:17.303Z,69.79
2023-02-17T00:54:43.667Z,69.85
2023-02-17T00:57:09.975Z,69.73
2023-02-17T00:59:36.314Z,69.97
2023-02-17T01:02:02.754Z,69.75
2023-02-17T01:04:29.226Z,69.96
2023-02-17T01:06:55.637Z,69.94
2023-02-17T01:09:22.035Z,69.96
2023-02-17T01:11:48.430Z,69.88
2023-02-17T01:14:15.063Z,70.01
2023-02-17T01:16:46.267Z,69.93
2023-02-17T01:19:15.643Z,69.88
2023-02-17T01:21:42.399Z,70.03
2023-02-17T01:24:09.688Z,70.06
2023-02-17T01:26:36.828Z,70.08
2023-02-17T01:29:05.361Z,69.96
2023-02-17T01:31:32.193Z,70.23
2023-02-17T01:34:01.439Z,69.96
2023-02-17T01:36:28.511Z,70.15
2023-02-17T01:38:55.065Z,70.16
2023-02-17T01:41:26.547Z,70.13
2023-02-17T01:44:12.898Z,70.03
2023-02-17T01:46:40.555Z,70.11
2023-02-17T01:49:17.354Z,69.59
2023-02-17T01:51:47.584Z,69.85
2023-02-17T01:54:22.627Z,69.84
2023-02-17T01:56:51.473Z,69.89
2023-02-17T01:59:20.932Z,70.09
2023-02-17T02:01:49.506Z,70.15
2023-02-17T02:04:18.917Z,70.09
2023-02-17T02:06:45.907Z,70.28
2023-02-17T02:09:22.641Z,70.04
2023-02-17T02:11:50.850Z,70.21
2023-02-17T02:14:19.909Z,70.17
2023-02-17T02:17:14.218Z,70.12
2023-02-17T02:20:08.653Z,70.02
2023-02-17T02:23:07.058Z,70.25
2023-02-17T02:26:10.721Z,69.99
2023-02-17T02:28:58.527Z,69.93
2023-02-17T02:31:37.592Z,70.03
2023-02-17T02:34:09.709Z,69.89
2023-02-17T02:36:43.604Z,70.08
2023-02-17T02:39:13.650Z,70.21
2023-02-17T02:41:45.612Z,70.10
2023-02-17T02:44:14.941Z,70.08
2023-02-17T02:46:41.333Z,70.24
2023-02-17T02:49:08.533Z,70.30
2023-02-17T02:52:03.883Z,70.00
2023-02-17T02:55:07.610Z,70.00
2023-02-17T02:58:02.739Z,70.02
2023-02-17T03:01:00.812Z,70.08
2023-02-17T03:03:45.602Z,70.00
2023-02-17T03:06:16.723Z,69.85
2023-02-17T03:08:52.305Z,69.95
2023-02-17T03:11:32.248Z,69.86
2023-02-17T03:14:10.735Z,69.93
2023-02-17T03:16:38.874Z,70.13
2023-02-17T03:19:06.801Z,70.19
2023-02-17T03:21:43.500Z,70.40
2023-02-17T03:24:10.472Z,70.29
2023-02-17T03:26:36.832Z,70.25
2023-02-17T03:29:03.691Z,70.22
2023-02-17T03:31:30.998Z,70.32
2023-02-17T03:33:58.040Z,70.13
2023-02-17T03:36:24.489Z,70.29
2023-02-17T03:38:51.243Z,70.26
2023-02-17T03:41:17.790Z,70.21
2023-02-17T03:43:44.163Z,69.99
2023-02-17T03:46:12.742Z,69.55
2023-02-17T03:48:39.485Z,70.02
2023-02-17T03:51:21.128Z,69.80
2023-02-17T03:53:48.453Z,69.75
2023-02-17T03:56:16.082Z,69.68
2023-02-17T03:58:43.216Z,69.64
2023-02-17T04:01:11.372Z,69.73
2023-02-17T04:03:38.834Z,69.46
2023-02-17T04:06:06.204Z,69.55
2023-02-17T04:08:33.136Z,69.47
2023-02-17T04:11:01.899Z,69.47
2023-02-17T04:13:28.980Z,69.40
2023-02-17T04:15:55.701Z,69.29
2023-02-17T04:18:23.024Z,69.18
2023-02-17T04:20:51.049Z,69.09
2023-02-17T04:23:17.968Z,69.11
2023-02-17T04:25:45.025Z,69.10
2023-02-17T04:28:12.888Z,69.01
2023-02-17T04:30:39.645Z,68.92
2023-02-17T04:33:06.151Z,68.98
2023-02-17T04:35:32.525Z,68.80
2023-02-17T04:37:58.993Z,68.72
2023-02-17T04:40:25.351Z,68.51
2023-02-17T04:42:51.707Z,68.38
2023-02-17T04:45:18.190Z,68.56
2023-02-17T04:47:44.490Z,68.35
2023-02-17T04:50:11.753Z,68.25
2023-02-17T04:52:38.518Z,68.24
2023-02-17T04:55:06.039Z,68.01
2023-02-17T04:57:32.743Z,67.98
2023-02-17T04:59:59.064Z,67.96
2023-02-17T05:02:28.534Z,67.91
2023-02-17T05:04:54.995Z,67.97
2023-02-17T05:07:21.837Z,67.88
2023-02-17T05:09:48.279Z,67.65
2023-02-17T05:12:14.639Z,67.56
2023-02-17T05:14:41.107Z,67.44
2023-02-17T05:17:07.528Z,67.47
2023-02-17T05:19:34.307Z,67.61
2023-02-17T05:22:00.626Z,67.27
2023-02-17T05:24:26.961Z,67.27
2023-02-17T05:26:53.387Z,67.24
2023-02-17T05:29:19.833Z,67.13
2023-02-17T05:31:46.321Z,67.22
2023-02-17T05:34:13.086Z,66.94
2023-02-17T05:36:39.434Z,66.71
2023-02-17T05:39:06.046Z,66.42
2023-02-17T05:41:32.495Z,66.66
2023-02-17T05:43:58.836Z,66.55
2023-02-17T05:46:25.194Z,66.60
2023-02-17T05:48:51.581Z,66.24
2023-02-17T05:51:18.041Z,66.26
2023-02-17T05:53:44.774Z,66.28
2023-02-17T05:56:11.302Z,66.10
2023-02-17T05:58:37.867Z,65.89
2023-02-17T06:01:08.993Z,65.88
2023-02-17T06:03:35.383Z,65.93
2023-02-17T06:06:01.830Z,65.72
2023-02-17T06:08:28.286Z,65.67
2023-02-17T06:10:54.740Z,65.62
2023-02-17T06:13:21.589Z,65.63
2023-02-17T06:15:48.253Z,65.58
2023-02-17T06:18:14.802Z,65.62
2023-02-17T06:20:41.281Z,65.59
2023-02-17T06:23:07.673Z,65.63
2023-02-17T06:25:34.176Z,65.63
2023-02-17T06:28:00.606Z,65.46
2023-02-17T06:30:27.034Z,65.64
2023-02-17T06:32:53.459Z,65.66
2023-02-17T06:35:19.839Z,65.65
2023-02-17T06:37:46.327Z,65.59
2023-02-17T06:40:13.118Z,65.59
2023-02-17T06:42:39.469Z,65.72
2023-02-17T06:45:06.486Z,65.77
2023-02-17T06:47:33.996Z,65.79
2023-02-17T06:50:00.420Z,65.81
2023-02-17T06:52:27.172Z,65.92
2023-02-17T06:54:53.645Z,65.87
2023-02-17T06:57:20.137Z,66.16
2023-02-17T06:59:46.602Z,66.07
2023-02-17T07:02:14.293Z,66.24
2023-02-17T07:04:41.980Z,66.37
2023-02-17T07:07:08.998Z,66.54
2023-02-17T07:09:35.490Z,66.56
2023-02-17T07:12:05.531Z,66.50
2023-02-17T07:14:33.878Z,66.71
2023-02-17T07:17:00.943Z,66.75
2023-02-17T07:19:27.277Z,66.94
2023-02-17T07:21:53.900Z,67.11
2023-02-17T07:24:20.334Z,67.10
2023-02-17T07:26:46.771Z,66.99
2023-02-17T07:29:13.339Z,67.05
2023-02-17T07:31:39.784Z,67.14
2023-02-17T07:34:06.384Z,67.27
2023-02-17T07:36:32.922Z,67.28
2023-02-17T07:38:59.578Z,67.49
2023-02-17T07:41:28.599Z,67.33
2023-02-17T07:43:56.540Z,67.60
2023-02-17T07:46:24.096Z,67.40
2023-02-17T07:48:50.522Z,67.58
2023-02-17T07:51:19.956Z,67.65
2023-02-17T07:53:47.067Z,67.84
2023-02-17T07:56:15.263Z,67.52
2023-02-17T07:58:43.223Z,68.01
2023-02-17T08:01:13.134Z,68.05
2023-02-17T08:03:40.169Z,68.25
2023-02-17T08:06:11.827Z,68.07
2023-02-17T08:09:06.668Z,67.91
2023-02-17T08:11:51.501Z,68.38
2023-02-17T08:14:20.002Z,68.09
2023-02-17T08:16:46.538Z,68.35
2023-02-17T08:19:13.071Z,68.49
2023-02-17T08:21:39.512Z,68.34
2023-02-17T08:24:06.337Z,68.47
2023-02-17T08:26:32.809Z,68.36
2023-02-17T08:28:59.234Z,68.34
2023-02-17T08:31:29.520Z,68.35
2023-02-17T08:33:57.094Z,68.39
2023-02-17T08:36:24.679Z,68.19
2023-02-17T08:38:54.275Z,68.20
2023-02-17T08:41:24.679Z,68.11
2023-02-17T08:43:52.274Z,68.16
2023-02-17T08:46:19.662Z,68.16
2023-02-17T08:48:46.665Z,68.19
2023-02-17T08:51:15.216Z,68.13
2023-02-17T08:53:42.320Z,68.16
2023-02-17T08:56:09.180Z,68.11
2023-02-17T08:58:36.315Z,68.27
2023-02-17T09:01:03.819Z,68.22
2023-02-17T09:03:30.600Z,68.29
2023-02-17T09:05:57.679Z,68.27
2023-02-17T09:08:25.122Z,68.16
2023-02-17T09:10:51.924Z,68.23
2023-02-17T09:13:19.043Z,68.13
2023-02-17T09:15:46.034Z,68.21
2023-02-17T09:18:12.570Z,68.11
2023-02-17T09:20:39.532Z,67.95
2023-02-17T09:23:07.008Z,68.22
2023-02-17T09:25:33.490Z,68.26
2023-02-17T09:28:00.058Z,68.30
2023-02-17T09:30:26.733Z,68.00
2023-02-17T09:32:53.300Z,68.19
2023-02-17T09:35:19.976Z,68.01
2023-02-17T09:37:46.428Z,68.22
2023-02-17T09:40:21.025Z,67.98
2023-02-17T09:42:47.872Z,67.88
2023-02-17T09:45:21.619Z,67.87
2023-02-17T09:47:52.735Z,67.81
2023-02-17T09:50:23.493Z,67.68
2023-02-17T09:52:54.997Z,67.76
2023-02-17T09:55:36.061Z,67.50
2023-02-17T09:58:16.705Z,67.44
2023-02-17T10:00:47.041Z,67.53
2023-02-17T10:03:24.758Z,67.34
2023-02-17T10:06:26.561Z,67.13
2023-02-17T10:09:17.456Z,67.19
2023-02-17T10:12:02.500Z,67.07
2023-02-17T10:15:04.257Z,66.81
2023-02-17T10:18:15.734Z,66.71
2023-02-17T10:20:51.767Z,66.43
2023-02-17T10:23:27.012Z,66.54
2023-02-17T10:26:14.551Z,66.38
2023-02-17T10:28:51.043Z,66.32
2023-02-17T10:31:45.523Z,66.19
2023-02-17T10:34:35.380Z,65.92
2023-02-17T10:37:31.056Z,66.02
2023-02-17T10:39:58.640Z,65.79
2023-02-17T10:42:27.217Z,65.87
2023-02-17T10:45:00.351Z,65.47
2023-02-17T10:47:26.941Z,65.29
2023-02-17T10:49:56.148Z,65.08
2023-02-17T10:52:27.806Z,64.79
2023-02-17T10:55:11.305Z,64.79
2023-02-17T10:57:52.926Z,64.47
2023-02-17T11:00:19.642Z,64.58
2023-02-17T11:02:48.853Z,64.36
2023-02-17T11:05:33.218Z,64.13
2023-02-17T11:08:23.602Z,64.03
2023-02-17T11:11:16.167Z,63.79
2023-02-17T11:14:11.893Z,63.54
2023-02-17T11:16:42.060Z,63.46
2023-02-17T11:19:24.394Z,63.23
2023-02-17T11:21:55.877Z,63.08
2023-02-17T11:24:22.904Z,63.29
2023-02-17T11:26:57.493Z,63.21
2023-02-17T11:29:24.390Z,62.96
2023-02-17T11:32:08.852Z,62.93
2023-02-17T11:34:40.821Z,62.78
2023-02-17T11:37:13.297Z,62.89
2023-02-17T11:39:45.865Z,62.65
2023-02-17T11:42:17.157Z,62.35
2023-02-17T11:44:43.534Z,62.39
2023-02-17T11:47:29.031Z,62.25
2023-02-17T11:50:14.294Z,62.04
2023-02-17T11:53:22.309Z,62.02
2023-02-17T11:55:56.544Z,61.84
2023-02-17T11:58:41.401Z,61.81
2023-02-17T12:01:29.653Z,61.76
2023-02-17T12:04:15.412Z,61.78
2023-02-17T12:06:41.769Z,61.86
2023-02-17T12:09:17.203Z,61.75
2023-02-17T12:12:28.605Z,62.06
2023-02-17T12:15:13.698Z,61.93
2023-02-17T12:18:01.897Z,61.84
2023-02-17T12:20:45.692Z,61.91
2023-02-17T12:23:19.065Z,62.01
2023-02-17T12:25:57.047Z,61.89
2023-02-17T12:28:41.808Z,61.94
2023-02-17T12:31:24.710Z,62.10
2023-02-17T12:34:00.804Z,61.87
2023-02-17T12:36:34.571Z,62.04
2023-02-17T12:39:11.549Z,61.98
2023-02-17T12:41:53.333Z,62.14
2023-02-17T12:44:26.232Z,62.33
2023-02-17T12:46:57.360Z,62.39
2023-02-17T12:49:32.168Z,62.26
2023-02-17T12:52:13.975Z,62.17
2023-02-17T12:54:56.877Z,62.30
2023-02-17T12:57:47.278Z,62.21
2023-02-17T13:00:34.312Z,62.25
2023-02-17T13:03:03.283Z,62.46
2023-02-17T13:05:40.886Z,62.58
2023-02-17T13:08:21.314Z,62.62
2023-02-17T13:10:47.893Z,62.75
2023-02-17T13:13:28.035Z,62.90
2023-02-17T13:16:11.847Z,63.40
2023-02-17T13:18:40.918Z,63.83
2023-02-17T13:21:27.668Z,64.30
2023-02-17T13:23:59.029Z,64.14
2023-02-17T13:26:39.367Z,64.91
2023-02-17T13:29:08.792Z,64.91
2023-02-17T13:31:55.824Z,65.40
2023-02-17T13:34:33.785Z,65.66
2023-02-17T13:37:03.581Z,65.74
2023-02-17T13:39:32.709Z,66.41
2023-02-17T13:42:01.227Z,66.54
2023-02-17T13:44:40.045Z,67.00
2023-02-17T13:47:14.309Z,67.12
2023-02-17T13:49:41.038Z,67.62
2023-02-17T13:52:10.645Z,67.60
2023-02-17T13:54:37.131Z,68.06
2023-02-17T13:57:03.748Z,68.10
2023-02-17T13:59:30.292Z,68.34
2023-02-17T14:01:56.651Z,68.21
2023-02-17T14:04:28.151Z,68.14
2023-02-17T14:06:58.501Z,68.20
2023-02-17T14:09:30.954Z,68.18
2023-02-17T14:11:59.002Z,68.45
2023-02-17T14:14:31.749Z,68.43
2023-02-17T14:17:04.822Z,68.72
2023-02-17T14:19:45.792Z,68.38
2023-02-17T14:22:28.543Z,68.51
2023-02-17T14:25:06.374Z,68.59
2023-02-17T14:27:53.001Z,68.47
2023-02-17T14:30:39.728Z,68.24
2023-02-17T14:33:18.131Z,68.29
2023-02-17T14:35:50.393Z,68.08
2023-02-17T14:38:22.068Z,67.98
2023-02-17T14:40:49.403Z,67.86
2023-02-17T14:43:16.059Z,67.50
2023-02-17T14:45:42.415Z,67.61
2023-02-17T14:48:08.928Z,67.29
2023-02-17T14:50:42.262Z,67.31
2023-02-17T14:53:13.031Z,67.13
2023-02-17T14:55:53.812Z,67.13
2023-02-17T14:58:23.428Z,66.89
2023-02-17T15:00:51.592Z,66.52
2023-02-17T15:03:18.546Z,66.66
2023-02-17T15:05:45.373Z,66.52
2023-02-17T15:08:18.067Z,66.46
2023-02-17T15:10:45.122Z,66.21
2023-02-17T15:13:17.429Z,66.25
2023-02-17T15:15:47.806Z,66.41
2023-02-17T15:18:16.646Z,66.09
2023-02-17T15:20:45.573Z,66.07
2023-02-17T15:23:17.758Z,66.14
2023-02-17T15:25:45.201Z,66.18
2023-02-17T15:28:17.977Z,65.65
2023-02-17T15:30:51.327Z,65.90
2023-02-17T15:33:18.552Z,65.84
2023-02-17T15:35:46.078Z,65.72
2023-02-17T15:38:13.771Z,65.92
2023-02-17T15:40:41.625Z,65.93
2023-02-17T15:43:14.933Z,65.88
2023-02-17T15:45:41.352Z,65.87
2023-02-17T15:48:14.228Z,65.81
2023-02-17T15:50:40.650Z,65.60
2023-02-17T15:53:07.130Z,65.68
2023-02-17T15:55:34.661Z,65.73
2023-02-17T15:58:04.484Z,65.57
2023-02-17T16:00:36.064Z,65.43
2023-02-17T16:03:02.865Z,65.48
2023-02-17T16:05:30.433Z,65.54
2023-02-17T16:07:57.167Z,65.60
2023-02-17T16:10:29.144Z,65.50
2023-02-17T16:12:58.108Z,65.53
2023-02-17T16:15:26.023Z,65.44
2023-02-17T16:17:52.519Z,65.12
2023-02-17T16:20:26.629Z,65.23
2023-02-17T16:22:53.373Z,65.19
2023-02-17T16:25:20.682Z,65.03
2023-02-17T16:27:49.411Z,64.91
2023-02-17T16:30:31.381Z,64.89
2023-02-17T16:32:58.075Z,64.77
2023-02-17T16:35:27.060Z,64.76
2023-02-17T16:38:05.269Z,64.71
2023-02-17T16:40:34.868Z,64.58
2023-02-17T16:43:01.304Z,64.66
2023-02-17T16:45:30.384Z,64.49
2023-02-17T16:47:59.897Z,64.55
2023-02-17T16:50:34.929Z,64.49
2023-02-17T16:53:04.941Z,64.48
2023-02-17T16:55:34.671Z,64.25
2023-02-17T16:58:01.617Z,64.40
2023-02-17T17:00:31.532Z,64.14
2023-02-17T17:02:58.768Z,64.13
2023-02-17T17:05:28.278Z,63.98
2023-02-17T17:07:54.913Z,64.10
2023-02-17T17:10:25.511Z,63.78
2023-02-17T17:12:52.197Z,63.86
2023-02-17T17:15:19.222Z,63.72
2023-02-17T17:17:55.083Z,63.71
2023-02-17T17:20:27.964Z,63.38
2023-02-17T17:22:54.505Z,63.59
2023-02-17T17:25:20.949Z,63.68
2023-02-17T17:27:47.460Z,63.68
2023-02-17T17:30:17.722Z,63.61
2023-02-17T17:32:45.661Z,63.80
2023-02-17T17:35:12.660Z,63.84
2023-02-17T17:37:39.690Z,63.75
2023-02-17T17:40:07.717Z,63.61
2023-02-17T17:42:37.474Z,63.81
2023-02-17T17:45:04.062Z,63.88
2023-02-17T17:47:31.263Z,63.98
2023-02-17T17:49:57.787Z,64.31
2023-02-17T17:52:24.349Z,64.25
2023-02-17T17:54:50.779Z,64.36
2023-02-17T17:57:17.154Z,64.44
2023-02-17T17:59:43.513Z,64.55
2023-02-17T18:02:09.883Z,64.89
2023-02-17T18:04:36.278Z,66.47
2023-02-17T18:07:03.347Z,66.90
2023-02-17T18:09:32.710Z,66.66
2023-02-17T18:12:02.792Z,66.71
2023-02-17T18:14:29.491Z,66.68
2023-02-17T18:16:57.446Z,65.96
2023-02-17T18:19:23.892Z,66.24
2023-02-17T18:21:50.239Z,65.90
2023-02-17T18:24:16.580Z,65.54
2023-02-17T18:26:42.886Z,65.25
2023-02-17T18:29:09.218Z,64.90
2023-02-17T18:31:35.907Z,64.71
2023-02-17T18:34:02.336Z,64.49
2023-02-17T18:36:29.129Z,64.55
2023-02-17T18:38:55.568Z,64.43
2023-02-17T18:41:27.949Z,64.63
2023-02-17T18:43:55.445Z,64.46
2023-02-17T18:46:22.106Z,64.59
2023-02-17T18:48:48.586Z,64.26
2023-02-17T18:51:17.409Z,64.15
2023-02-17T18:53:43.717Z,63.75
2023-02-17T18:56:12.690Z,63.84
2023-02-17T18:58:39.459Z,63.53
2023-02-17T19:01:06.358Z,63.85
2023-02-17T19:03:32.788Z,63.74
2023-02-17T19:05:59.109Z,63.52
2023-02-17T19:08:25.879Z,63.38
2023-02-17T19:10:52.238Z,63.62
2023-02-17T19:13:18.548Z,63.17
2023-02-17T19:15:44.960Z,63.19
2023-02-17T19:18:11.392Z,62.78
2023-02-17T19:20:37.782Z,62.10
2023-02-17T19:23:04.117Z,61.34
2023-02-17T19:25:30.489Z,60.45
2023-02-17T19:27:56.884Z,60.15
2023-02-17T19:30:23.320Z,59.18
2023-02-17T19:32:49.688Z,58.67
2023-02-17T19:35:16.088Z,58.65
2023-02-17T19:37:42.429Z,58.66
2023-02-17T19:40:09.134Z,58.14
2023-02-17T19:42:36.449Z,58.60
2023-02-17T19:45:02.867Z,58.18
2023-02-17T19:47:30.916Z,58.26
2023-02-17T19:49:57.367Z,58.46
2023-02-17T19:52:23.692Z,57.88
2023-02-17T19:54:50.423Z,58.00
2023-02-17T19:57:18.236Z,56.68
2023-02-17T19:59:46.312Z,56.25
2023-02-17T20:02:14.455Z,56.43
2023-02-17T20:04:41.210Z,56.10
2023-02-17T20:07:07.573Z,55.73
2023-02-17T20:09:33.946Z,55.32
2023-02-17T20:12:00.287Z,55.17
2023-02-17T20:14:26.895Z,55.57
2023-02-17T20:16:55.301Z,55.45
2023-02-17T20:19:22.160Z,55.42
2023-02-17T20:21:48.540Z,55.73
2023-02-17T20:24:15.172Z,55.92
2023-02-17T20:26:44.561Z,56.13
2023-02-17T20:29:12.892Z,56.30
2023-02-17T20:31:40.885Z,56.46
2023-02-17T20:34:17.537Z,56.28
2023-02-17T20:36:43.845Z,56.33
2023-02-17T20:39:10.205Z,56.06
2023-02-17T20:41:36.554Z,55.84
2023-02-17T20:44:04.436Z,55.42
2023-02-17T20:46:31.004Z,55.27
2023-02-17T20:48:57.409Z,55.45
2023-02-17T20:51:24.051Z,54.83
2023-02-17T20:53:51.193Z,54.90
2023-02-17T20:56:23.909Z,54.92
2023-02-17T20:58:51.943Z,54.58
2023-02-17T21:01:19.668Z,55.13
2023-02-17T21:03:47.052Z,54.84
2023-02-17T21:06:23.126Z,55.35
2023-02-17T21:08:58.517Z,55.13
2023-02-17T21:11:24.950Z,55.01
2023-02-17T21:13:52.466Z,54.61
2023-02-17T21:16:22.274Z,55.07
2023-02-17T21:18:49.240Z,54.98
2023-02-17T21:21:16.524Z,54.86
2023-02-17T21:23:43.344Z,55.09
2023-02-17T21:26:11.351Z,54.76
2023-02-17T21:28:38.348Z,54.85
2023-02-17T21:31:05.142Z,54.58
2023-02-17T21:33:31.944Z,54.61
2023-02-17T21:35:58.302Z,54.86
2023-02-17T21:38:24.693Z,54.66
2023-02-17T21:40:51.068Z,54.71
2023-02-17T21:43:37.647Z,54.80
2023-02-17T21:46:09.179Z,54.95
2023-02-17T21:48:35.655Z,54.76
2023-02-17T21:51:06.592Z,55.33
2023-02-17T21:53:33.044Z,54.92
2023-02-17T21:56:00.341Z,54.94
2023-02-17T21:58:27.378Z,54.95
2023-02-17T22:00:53.763Z,55.26
2023-02-17T22:03:20.161Z,55.31
2023-02-17T22:05:46.511Z,55.24
2023-02-17T22:08:12.867Z,55.13
2023-02-17T22:10:40.480Z,55.49
2023-02-17T22:13:07.723Z,55.17
2023-02-17T22:15:35.139Z,55.49
2023-02-17T22:18:01.945Z,55.55
2023-02-17T22:20:29.008Z,55.29
2023-02-17T22:22:55.601Z,55.22
2023-02-17T22:25:23.693Z,56.02
2023-02-17T22:27:50.541Z,56.17
2023-02-17T22:30:17.462Z,56.34
2023-02-17T22:32:43.841Z,56.63
2023-02-17T22:35:10.726Z,56.55
2023-02-17T22:37:37.511Z,56.58
2023-02-17T22:40:05.074Z,56.85
2023-02-17T22:42:31.457Z,56.68
2023-02-17T22:44:57.783Z,56.58
2023-02-17T22:47:24.120Z,57.10
2023-02-17T22:49:50.440Z,56.97
2023-02-17T22:52:16.755Z,56.84
2023-02-17T22:54:44.054Z,57.02
2023-02-17T22:57:10.416Z,57.20
2023-02-17T22:59:36.802Z,57.47
2023-02-17T23:02:03.300Z,57.82
2023-02-17T23:04:29.823Z,57.95
2023-02-17T23:06:56.506Z,57.88
2023-02-17T23:09:23.138Z,58.01
2023-02-17T23:11:55.381Z,57.99
2023-02-17T23:14:30.600Z,58.34
2023-02-17T23:17:02.291Z,58.56
2023-02-17T23:19:29.561Z,59.13
2023-02-17T23:21:58.510Z,59.30
2023-02-17T23:24:26.277Z,59.71
2023-02-17T23:26:54.315Z,60.33
2023-02-17T23:29:20.879Z,60.69
2023-02-17T23:31:47.373Z,60.88
2023-02-17T23:34:15.078Z,61.48
2023-02-17T23:36:43.161Z,61.70
2023-02-17T23:39:10.133Z,62.20
2023-02-17T23:41:37.717Z,62.51
2023-02-17T23:44:05.356Z,62.57
2023-02-17T23:46:31.842Z,62.65
2023-02-17T23:48:58.271Z,62.89
2023-02-17T23:51:25.050Z,63.25
2023-02-17T23:53:51.413Z,63.22
2023-02-17T23:56:25.513Z,63.64
2023-02-17T23:58:52.106Z,64.00
